createdAt,value
2019-03-28T00:03:36.345Z,7.37
2019-03-28T00:08:44.200Z,7.86
2019-03-28T00:13:51.809Z,7.80
2019-03-28T00:18:59.485Z,8.15
2019-03-28T00:24:07.301Z,8.57
2019-03-28T00:29:14.920Z,8.01
2019-03-28T00:34:22.888Z,8.50
2019-03-28T00:39:30.562Z,8.63
2019-03-28T00:44:38.230Z,8.32
2019-03-28T00:49:45.941Z,8.60
2019-03-28T00:54:54.610Z,8.77
2019-03-28T01:00:02.269Z,8.82
2019-03-28T01:05:09.914Z,8.60
2019-03-28T01:10:17.699Z,9.52
2019-03-28T01:15:25.429Z,10.15
2019-03-28T01:20:33.111Z,10.43
2019-03-28T01:25:40.777Z,10.47
2019-03-28T01:30:48.413Z,11.57
2019-03-28T01:35:57.126Z,11.34
2019-03-28T01:41:04.811Z,11.27
2019-03-28T01:46:12.375Z,11.75
2019-03-28T01:51:20.179Z,11.34
2019-03-28T01:56:27.760Z,12.48
2019-03-28T02:01:35.532Z,12.63
2019-03-28T02:06:43.218Z,13.63
2019-03-28T02:11:50.971Z,12.73
2019-03-28T02:16:58.590Z,13.48
2019-03-28T02:22:06.314Z,14.30
2019-03-28T02:27:23.430Z,13.06
2019-03-28T02:32:21.228Z,14.56
2019-03-28T02:37:28.973Z,14.77
2019-03-28T02:42:36.752Z,14.30
2019-03-28T02:47:44.502Z,15.39
2019-03-28T02:52:52.254Z,15.26
2019-03-28T02:57:59.945Z,15.49
2019-03-28T03:03:07.682Z,15.79
2019-03-28T03:08:15.622Z,16.44
2019-03-28T03:13:23.268Z,16.35
2019-03-28T03:18:31.070Z,16.02
2019-03-28T03:23:38.915Z,16.61
2019-03-28T03:28:46.865Z,16.21
2019-03-28T03:33:54.628Z,16.74
2019-03-28T03:39:02.384Z,17.25
2019-03-28T03:44:09.977Z,18.64
2019-03-28T03:49:17.737Z,19.03
2019-03-28T03:54:25.469Z,19.97
2019-03-28T03:59:33.093Z,19.21
2019-03-28T04:04:40.784Z,20.43
2019-03-28T04:09:48.473Z,20.20
2019-03-28T04:14:56.089Z,20.89
2019-03-28T04:20:03.790Z,20.95
2019-03-28T04:25:11.459Z,21.56
2019-03-28T04:30:19.281Z,23.11
2019-03-28T04:35:27.235Z,23.05
2019-03-28T04:40:34.953Z,22.55
2019-03-28T04:45:42.541Z,23.13
2019-03-28T04:50:50.295Z,23.18
2019-03-28T04:55:57.929Z,24.36
2019-03-28T05:01:05.685Z,24.58
2019-03-28T05:06:13.297Z,24.19
2019-03-28T05:11:20.977Z,25.04
2019-03-28T05:16:28.644Z,25.02
2019-03-28T05:21:36.399Z,24.48
2019-03-28T05:26:43.953Z,24.75
2019-03-28T05:31:51.657Z,24.29
2019-03-28T05:36:59.480Z,24.24
2019-03-28T05:42:07.185Z,23.24
2019-03-28T05:47:15.697Z,24.68
2019-03-28T05:52:23.333Z,24.42
2019-03-28T06:02:33.468Z,24.47
2019-03-28T06:07:41.189Z,24.12
2019-03-28T06:12:48.885Z,23.60
2019-03-28T06:17:56.652Z,24.07
2019-03-28T06:23:04.304Z,23.96
2019-03-28T06:28:12.171Z,24.30
2019-03-28T06:33:19.770Z,25.51
2019-03-28T06:38:27.465Z,25.45
2019-03-28T06:43:35.157Z,24.76
2019-03-28T06:48:44.009Z,27.49
2019-03-28T06:53:51.756Z,24.63
2019-03-28T06:58:59.481Z,25.70
2019-03-28T07:04:07.246Z,25.89
2019-03-28T07:09:14.917Z,25.49
2019-03-28T07:14:22.645Z,26.21
2019-03-28T07:19:30.233Z,26.16
2019-03-28T07:24:38.111Z,26.14
2019-03-28T07:29:51.189Z,25.42
2019-03-28T07:34:52.852Z,24.38
2019-03-28T07:40:00.536Z,23.45
2019-03-28T07:45:08.330Z,23.73
2019-03-28T07:50:16.126Z,23.75
2019-03-28T07:55:23.937Z,22.84
2019-03-28T08:00:31.588Z,23.32
2019-03-28T08:05:41.205Z,22.66
2019-03-28T08:10:48.815Z,21.58
2019-03-28T08:15:56.485Z,20.86
2019-03-28T08:21:05.013Z,19.67
2019-03-28T08:26:12.773Z,20.54
2019-03-28T08:31:20.581Z,20.61
2019-03-28T08:36:28.207Z,21.01
2019-03-28T08:41:35.805Z,21.45
2019-03-28T08:46:43.486Z,19.73
2019-03-28T08:51:51.144Z,19.36
2019-03-28T08:56:58.838Z,20.59
2019-03-28T09:02:06.570Z,19.24
2019-03-28T09:07:17.209Z,18.42
2019-03-28T09:12:21.322Z,18.98
2019-03-28T09:17:28.921Z,19.10
2019-03-28T09:22:38.952Z,17.41
2019-03-28T09:27:44.002Z,18.34
2019-03-28T09:32:51.525Z,18.18
2019-03-28T09:37:59.112Z,17.88
2019-03-28T09:43:06.841Z,18.25
2019-03-28T09:48:14.541Z,19.24
2019-03-28T09:53:22.232Z,17.95
2019-03-28T09:58:29.901Z,18.08
2019-03-28T10:03:37.532Z,18.14
2019-03-28T10:08:45.221Z,18.36
2019-03-28T10:13:53.085Z,17.84
2019-03-28T10:19:00.825Z,16.81
2019-03-28T10:24:08.441Z,16.29
2019-03-28T10:29:16.461Z,14.71
2019-03-28T10:34:24.322Z,14.12
2019-03-28T10:39:32.010Z,14.48
2019-03-28T10:44:40.649Z,15.87
2019-03-28T10:49:48.329Z,15.34
2019-03-28T10:54:56.009Z,12.95
2019-03-28T11:00:03.662Z,11.73
2019-03-28T11:05:11.423Z,12.21
2019-03-28T11:10:19.950Z,11.01
2019-03-28T11:15:27.665Z,12.02
2019-03-28T11:20:36.074Z,12.71
2019-03-28T11:25:42.684Z,12.76
2019-03-28T11:30:50.253Z,12.36
2019-03-28T11:35:57.970Z,12.83
2019-03-28T11:41:05.561Z,13.00
2019-03-28T11:46:13.331Z,11.81
2019-03-28T11:51:20.981Z,11.58
2019-03-28T11:56:28.825Z,12.10
2019-03-28T12:01:36.505Z,11.46
2019-03-28T12:06:44.205Z,11.23
2019-03-28T12:11:53.034Z,10.74
2019-03-28T12:16:59.041Z,9.40
2019-03-28T12:22:07.607Z,9.29
2019-03-28T12:27:15.381Z,9.74
2019-03-28T12:32:22.977Z,8.55
2019-03-28T12:37:30.697Z,8.91
2019-03-28T12:42:38.340Z,8.98
2019-03-28T12:47:46.037Z,8.36
2019-03-28T12:52:53.709Z,7.17
2019-03-28T12:58:01.521Z,5.76
2019-03-28T13:03:09.362Z,5.47
2019-03-28T13:08:17.782Z,5.50
2019-03-28T13:13:24.488Z,5.63
2019-03-28T13:18:32.222Z,6.10
2019-03-28T13:23:39.825Z,6.57
2019-03-28T13:28:47.602Z,6.66
2019-03-28T13:33:55.237Z,7.15
2019-03-28T13:39:45.049Z,8.48
2019-03-28T13:44:52.681Z,8.31
2019-03-28T13:50:00.375Z,8.15
2019-03-28T13:55:08.077Z,7.91
2019-03-28T14:00:15.750Z,7.61
2019-03-28T14:05:23.450Z,7.45
2019-03-28T14:10:31.154Z,7.70
2019-03-28T14:15:38.906Z,7.48
2019-03-28T14:20:46.594Z,6.86
2019-03-28T14:25:54.282Z,6.40
2019-03-28T14:31:01.998Z,6.81
2019-03-28T14:36:09.733Z,7.00
2019-03-28T14:41:17.353Z,6.29
2019-03-28T14:46:24.948Z,5.79
2019-03-28T14:51:32.637Z,5.96
2019-03-28T14:56:40.294Z,6.25
2019-03-28T15:01:48.054Z,5.17
2019-03-28T15:06:55.681Z,5.79
2019-03-28T15:12:03.362Z,5.03
2019-03-28T15:17:10.988Z,4.11
2019-03-28T15:22:18.622Z,3.57
2019-03-28T15:27:26.258Z,4.33
2019-03-28T15:32:33.952Z,4.41
2019-03-28T15:37:41.572Z,4.65
2019-03-28T15:42:49.293Z,5.32
2019-03-28T15:47:57.226Z,6.39
2019-03-28T15:53:04.919Z,5.56
2019-03-28T15:58:22.470Z,5.59
2019-03-28T16:03:19.746Z,5.63
2019-03-28T16:08:27.882Z,5.61
2019-03-28T16:13:37.397Z,5.38
2019-03-28T16:18:41.718Z,5.71
2019-03-28T16:23:49.357Z,5.70
2019-03-28T16:28:57.058Z,5.98
2019-03-28T16:34:07.000Z,5.97
2019-03-28T16:39:11.918Z,5.87
2019-03-28T16:44:19.546Z,5.78
2019-03-28T16:49:27.203Z,6.08
2019-03-28T16:54:34.845Z,6.74
2019-03-28T16:59:42.706Z,6.13
2019-03-28T17:04:50.320Z,6.34
2019-03-28T17:09:57.986Z,6.01
2019-03-28T17:15:05.626Z,6.11
2019-03-28T17:20:13.305Z,6.63
2019-03-28T17:25:20.939Z,6.11
2019-03-28T17:30:28.599Z,5.45
2019-03-28T17:35:36.207Z,5.90
2019-03-28T17:40:43.934Z,5.97
2019-03-28T17:45:52.519Z,5.69
2019-03-28T17:56:02.882Z,5.62
2019-03-28T18:01:11.069Z,5.87
2019-03-28T18:06:18.695Z,5.85
2019-03-28T18:11:26.488Z,5.48
2019-03-28T18:16:34.206Z,5.82
2019-03-28T18:21:41.686Z,5.86
2019-03-28T18:26:49.317Z,6.35
2019-03-28T18:31:58.230Z,6.21
2019-03-28T18:37:05.957Z,6.40
2019-03-28T18:42:13.680Z,6.31
2019-03-28T18:47:21.300Z,8.02
2019-03-28T18:52:29.174Z,10.82
2019-03-28T18:57:36.848Z,11.22
2019-03-28T19:02:44.492Z,12.89
2019-03-28T19:07:52.132Z,13.22
2019-03-28T19:13:00.207Z,11.01
2019-03-28T19:18:08.892Z,9.51
2019-03-28T19:23:16.702Z,8.89
2019-03-28T19:28:29.116Z,8.07
2019-03-28T19:33:32.959Z,7.62
2019-03-28T19:38:39.598Z,7.51
2019-03-28T19:43:47.204Z,7.59
2019-03-28T19:48:55.160Z,8.67
2019-03-28T19:54:02.920Z,8.13
2019-03-28T19:59:10.575Z,8.49
2019-03-28T20:04:18.200Z,8.79
2019-03-28T20:09:25.820Z,8.55
2019-03-28T20:14:33.516Z,8.91
2019-03-28T20:19:41.197Z,8.29
2019-03-28T20:24:48.820Z,10.76
2019-03-28T20:29:56.489Z,10.60
2019-03-28T20:35:04.134Z,10.26
2019-03-28T20:40:11.806Z,10.63
2019-03-28T20:45:20.525Z,10.38
2019-03-28T20:50:31.468Z,10.46
2019-03-28T20:55:36.893Z,10.77
2019-03-28T21:00:44.574Z,10.61
2019-03-28T21:05:52.020Z,10.57
2019-03-28T21:10:59.907Z,10.93
2019-03-28T21:16:07.632Z,10.50
2019-03-28T21:21:16.346Z,12.45
2019-03-28T21:26:24.127Z,12.46
2019-03-28T21:31:31.750Z,11.32
2019-03-28T21:36:39.694Z,10.77
2019-03-28T21:41:48.545Z,10.83
2019-03-28T21:46:56.229Z,10.21
2019-03-28T21:52:03.922Z,10.32
2019-03-28T21:57:14.401Z,10.49
2019-03-28T22:02:19.983Z,10.32
2019-03-28T22:07:27.800Z,10.42
2019-03-28T22:12:35.433Z,10.43
2019-03-28T22:17:43.092Z,10.94
2019-03-28T22:22:51.857Z,10.28
2019-03-28T22:27:59.527Z,10.38
2019-03-28T22:33:09.357Z,11.13
2019-03-28T22:38:16.944Z,11.10
2019-03-28T22:43:24.598Z,11.27
2019-03-28T22:48:32.601Z,10.95
2019-03-28T22:53:40.402Z,10.10
2019-03-28T22:58:48.130Z,9.73
2019-03-28T23:03:55.797Z,10.30
2019-03-28T23:09:03.471Z,10.71
2019-03-28T23:14:11.538Z,10.87
2019-03-28T23:19:19.196Z,10.97
2019-03-28T23:24:26.916Z,10.98
2019-03-28T23:29:35.080Z,10.62
2019-03-28T23:34:42.828Z,10.59
2019-03-28T23:39:50.541Z,10.30
2019-03-28T23:44:58.349Z,10.37
2019-03-28T23:50:06.982Z,12.13
2019-03-28T23:55:14.193Z,13.32
